createdAt,value
2022-12-24T00:02:25.746Z,99673.81
2022-12-24T00:05:00.637Z,99674.94
2022-12-24T00:07:30.658Z,99675.03
2022-12-24T00:10:02.756Z,99667.97
2022-12-24T00:12:32.148Z,99673.16
2022-12-24T00:15:10.691Z,99673.53
2022-12-24T00:17:40.053Z,99675.66
2022-12-24T00:20:11.450Z,99667.78
2022-12-24T00:22:40.886Z,99671.03
2022-12-24T00:25:13.235Z,99670.00
2022-12-24T00:27:42.613Z,99671.03
2022-12-24T00:30:12.963Z,99668.25
2022-12-24T00:32:42.457Z,99670.56
2022-12-24T00:35:12.362Z,99676.41
2022-12-24T00:37:41.776Z,99681.22
2022-12-24T00:40:14.494Z,99673.81
2022-12-24T00:42:43.857Z,99677.53
2022-12-24T00:45:14.586Z,99671.50
2022-12-24T00:47:44.466Z,99679.94
2022-12-24T00:50:14.082Z,99681.13
2022-12-24T00:52:43.613Z,99691.16
2022-12-24T00:55:15.782Z,99680.69
2022-12-24T00:57:45.155Z,99685.97
2022-12-24T01:00:16.056Z,99690.03
2022-12-24T01:02:45.699Z,99686.97
2022-12-24T01:05:12.816Z,99684.09
2022-12-24T01:07:44.645Z,99693.38
2022-12-24T01:10:19.841Z,99696.25
2022-12-24T01:12:49.647Z,99707.66
2022-12-24T01:15:19.029Z,99708.66
2022-12-24T01:17:48.428Z,99708.13
2022-12-24T01:20:19.781Z,99719.97
2022-12-24T01:22:49.513Z,99728.69
2022-12-24T01:25:21.508Z,99723.13
2022-12-24T01:27:50.871Z,99728.50
2022-12-24T01:30:20.250Z,99728.13
2022-12-24T01:32:49.661Z,99723.88
2022-12-24T01:35:19.194Z,99720.34
2022-12-24T01:37:48.538Z,99721.72
2022-12-24T01:40:34.195Z,99729.41
2022-12-24T01:43:16.189Z,99729.50
2022-12-24T01:45:51.429Z,99732.56
2022-12-24T01:48:27.788Z,99731.34
2022-12-24T01:51:01.112Z,99726.44
2022-12-24T01:53:31.048Z,99728.03
2022-12-24T01:56:04.035Z,99732.88
2022-12-24T01:58:35.252Z,99731.81
2022-12-24T02:01:05.164Z,99729.88
2022-12-24T02:03:34.742Z,99733.66
2022-12-24T02:06:04.713Z,99729.59
2022-12-24T02:08:42.613Z,99737.19
2022-12-24T02:11:17.201Z,99729.81
2022-12-24T02:13:50.318Z,99733.22
2022-12-24T02:16:34.139Z,99745.28
2022-12-24T02:19:20.903Z,99740.06
2022-12-24T02:22:01.168Z,99745.16
2022-12-24T02:24:57.131Z,99741.91
2022-12-24T02:27:39.845Z,99753.97
2022-12-24T02:30:17.078Z,99753.41
2022-12-24T02:32:59.475Z,99752.00
2022-12-24T02:35:38.164Z,99758.09
2022-12-24T02:38:15.866Z,99756.88
2022-12-24T02:40:50.528Z,99760.59
2022-12-24T02:43:24.908Z,99763.81
2022-12-24T02:46:02.123Z,99759.34
2022-12-24T02:48:33.734Z,99765.13
2022-12-24T02:51:07.042Z,99758.16
2022-12-24T02:53:37.397Z,99757.19
2022-12-24T02:56:25.405Z,99773.00
2022-12-24T02:59:11.512Z,99772.59
2022-12-24T03:01:53.404Z,99761.81
2022-12-24T03:04:41.924Z,99765.81
2022-12-24T03:07:20.808Z,99777.03
2022-12-24T03:09:59.810Z,99778.50
2022-12-24T03:12:33.406Z,99781.09
2022-12-24T03:15:03.937Z,99783.16
2022-12-24T03:17:39.722Z,99787.91
2022-12-24T03:20:13.801Z,99790.66
2022-12-24T03:22:43.476Z,99808.44
2022-12-24T03:25:13.097Z,99801.41
2022-12-24T03:27:43.832Z,99809.53
2022-12-24T03:30:18.577Z,99812.03
2022-12-24T03:32:50.557Z,99807.09
2022-12-24T03:35:20.099Z,99817.44
2022-12-24T03:37:49.461Z,99828.22
2022-12-24T03:40:19.020Z,99816.16
2022-12-24T03:42:48.406Z,99832.31
2022-12-24T03:45:17.803Z,99844.00
2022-12-24T03:47:49.879Z,99831.19
2022-12-24T03:50:19.525Z,99846.97
2022-12-24T03:52:51.598Z,99845.28
2022-12-24T03:55:21.007Z,99861.22
2022-12-24T03:57:50.386Z,99847.97
2022-12-24T04:00:20.868Z,99859.44
2022-12-24T04:02:52.916Z,99860.47
2022-12-24T04:05:23.481Z,99881.88
2022-12-24T04:07:52.867Z,99869.16
2022-12-24T04:10:22.259Z,99879.50
2022-12-24T04:12:51.642Z,99885.53
2022-12-24T04:15:21.360Z,99897.31
2022-12-24T04:17:53.356Z,99880.47
2022-12-24T04:20:22.736Z,99886.53
2022-12-24T04:22:52.114Z,99894.03
2022-12-24T04:25:21.519Z,99899.34
2022-12-24T04:27:50.884Z,99891.72
2022-12-24T04:30:20.385Z,99908.56
2022-12-24T04:32:49.790Z,99900.47
2022-12-24T04:35:21.749Z,99910.66
2022-12-24T04:37:51.188Z,99915.03
2022-12-24T04:40:20.699Z,99908.16
2022-12-24T04:42:50.479Z,99925.59
2022-12-24T04:45:20.321Z,99927.00
2022-12-24T04:47:49.715Z,99922.56
2022-12-24T04:50:21.842Z,99919.53
2022-12-24T04:52:51.253Z,99929.75
2022-12-24T04:55:20.713Z,99917.97
2022-12-24T04:57:53.071Z,99934.09
2022-12-24T05:00:23.385Z,99934.88
2022-12-24T05:02:52.849Z,99940.47
2022-12-24T05:05:24.882Z,99937.72
2022-12-24T05:07:54.234Z,99947.34
2022-12-24T05:10:23.679Z,99936.09
2022-12-24T05:12:53.065Z,99947.41
2022-12-24T05:15:22.978Z,99956.78
2022-12-24T05:17:52.465Z,99949.66
2022-12-24T05:20:21.900Z,99975.34
2022-12-24T05:23:06.371Z,99971.44
2022-12-24T05:25:53.467Z,99983.03
2022-12-24T05:28:22.866Z,99981.19
2022-12-24T05:30:52.305Z,99973.94
2022-12-24T05:33:21.777Z,99981.97
2022-12-24T05:35:51.138Z,99995.81
2022-12-24T05:38:23.051Z,99996.28
2022-12-24T05:40:52.465Z,100007.25
2022-12-24T05:43:21.865Z,100008.47
2022-12-24T05:45:51.278Z,100009.63
2022-12-24T05:48:20.737Z,100013.53
2022-12-24T05:50:50.095Z,100016.00
2022-12-24T05:53:19.505Z,100007.44
2022-12-24T05:55:51.909Z,100006.66
2022-12-24T05:58:21.272Z,100016.13
2022-12-24T06:00:50.664Z,100012.22
2022-12-24T06:03:20.058Z,100022.53
2022-12-24T06:05:49.384Z,100027.38
2022-12-24T06:08:18.831Z,100032.19
2022-12-24T06:10:56.570Z,100033.69
2022-12-24T06:13:25.933Z,100043.44
2022-12-24T06:15:57.636Z,100041.13
2022-12-24T06:18:27.320Z,100047.72
2022-12-24T06:20:58.094Z,100051.91
2022-12-24T06:23:28.823Z,100048.28
2022-12-24T06:26:03.359Z,100052.72
2022-12-24T06:28:33.976Z,100064.16
2022-12-24T06:31:04.246Z,100069.53
2022-12-24T06:33:34.778Z,100065.19
2022-12-24T06:36:04.269Z,100069.75
2022-12-24T06:38:33.704Z,100064.16
2022-12-24T06:41:08.472Z,100081.84
2022-12-24T06:43:38.224Z,100081.25
2022-12-24T06:46:08.281Z,100080.63
2022-12-24T06:48:37.651Z,100089.81
2022-12-24T06:51:07.529Z,100097.72
2022-12-24T06:53:36.941Z,100089.25
2022-12-24T06:56:10.836Z,100087.91
2022-12-24T06:58:40.756Z,100105.09
2022-12-24T07:01:12.951Z,100095.16
2022-12-24T07:03:42.739Z,100103.31
2022-12-24T07:06:17.478Z,100102.38
2022-12-24T07:08:46.939Z,100107.59
2022-12-24T07:11:18.978Z,100095.16
2022-12-24T07:13:49.297Z,100115.69
2022-12-24T07:16:18.852Z,100127.31
2022-12-24T07:18:48.395Z,100128.97
2022-12-24T07:21:17.892Z,100124.41
2022-12-24T07:23:47.302Z,100126.66
2022-12-24T07:26:19.308Z,100137.16
2022-12-24T07:28:48.979Z,100146.91
2022-12-24T07:31:18.362Z,100150.25
2022-12-24T07:33:47.789Z,100145.78
2022-12-24T07:36:21.704Z,100151.53
2022-12-24T07:38:52.685Z,100150.91
2022-12-24T07:41:24.689Z,100158.78
2022-12-24T07:43:54.094Z,100161.38
2022-12-24T07:46:23.587Z,100185.84
2022-12-24T07:48:53.034Z,100184.53
2022-12-24T07:51:22.421Z,100188.06
2022-12-24T07:53:51.862Z,100193.28
2022-12-24T07:56:23.973Z,100205.28
2022-12-24T07:58:53.956Z,100205.44
2022-12-24T08:01:23.421Z,100201.75
2022-12-24T08:03:54.652Z,100206.50
2022-12-24T08:06:24.524Z,100211.22
2022-12-24T08:08:53.920Z,100200.53
2022-12-24T08:11:25.930Z,100203.91
2022-12-24T08:13:55.337Z,100201.75
2022-12-24T08:16:24.938Z,100207.44
2022-12-24T08:18:54.403Z,100210.09
2022-12-24T08:21:23.796Z,100216.34
2022-12-24T08:23:53.221Z,100216.81
2022-12-24T08:26:22.617Z,100226.47
2022-12-24T08:28:54.628Z,100230.94
2022-12-24T08:31:24.197Z,100232.06
2022-12-24T08:33:54.130Z,100232.91
2022-12-24T08:36:23.608Z,100244.06
2022-12-24T08:38:52.992Z,100237.47
2022-12-24T08:41:22.389Z,100253.66
2022-12-24T08:43:54.361Z,100261.91
2022-12-24T08:46:23.922Z,100271.03
2022-12-24T08:48:53.359Z,100273.78
2022-12-24T08:51:23.564Z,100276.59
2022-12-24T08:53:53.082Z,100276.09
2022-12-24T08:56:22.601Z,100278.03
2022-12-24T08:58:54.658Z,100279.69
2022-12-24T09:01:24.342Z,100275.03
2022-12-24T09:03:53.878Z,100277.81
2022-12-24T09:06:26.578Z,100290.50
2022-12-24T09:08:55.803Z,100294.69
2022-12-24T09:11:25.194Z,100292.81
2022-12-24T09:13:57.667Z,100305.28
2022-12-24T09:16:27.145Z,100301.75
2022-12-24T09:18:56.551Z,100307.47
2022-12-24T09:21:26.169Z,100311.16
2022-12-24T09:23:55.628Z,100308.47
2022-12-24T09:26:27.748Z,100313.50
2022-12-24T09:29:01.528Z,100316.19
2022-12-24T09:31:31.502Z,100316.19
2022-12-24T09:34:00.990Z,100333.41
2022-12-24T09:36:30.450Z,100339.59
2022-12-24T09:38:59.879Z,100336.63
2022-12-24T09:41:40.039Z,100347.91
2022-12-24T09:44:23.646Z,100344.13
2022-12-24T09:46:56.209Z,100358.38
2022-12-24T09:49:31.572Z,100360.81
2022-12-24T09:52:05.491Z,100366.59
2022-12-24T09:54:40.268Z,100367.34
2022-12-24T09:57:23.695Z,100371.53
2022-12-24T09:59:55.962Z,100372.84
2022-12-24T10:02:25.652Z,100370.97
2022-12-24T10:04:55.158Z,100369.84
2022-12-24T10:07:34.356Z,100372.38
2022-12-24T10:10:15.046Z,100385.09
2022-12-24T10:12:51.247Z,100384.72
2022-12-24T10:15:30.657Z,100395.59
2022-12-24T10:18:21.376Z,100398.09
2022-12-24T10:20:57.740Z,100389.53
2022-12-24T10:23:35.814Z,100401.25
2022-12-24T10:26:15.233Z,100398.00
2022-12-24T10:28:49.363Z,100401.16
2022-12-24T10:31:23.536Z,100404.91
2022-12-24T10:33:59.764Z,100402.72
2022-12-24T10:36:32.028Z,100402.25
2022-12-24T10:39:02.170Z,100399.94
2022-12-24T10:41:33.263Z,100412.09
2022-12-24T10:44:02.964Z,100406.81
2022-12-24T10:46:40.458Z,100404.81
2022-12-24T10:49:15.466Z,100409.97
2022-12-24T10:51:49.707Z,100419.47
2022-12-24T10:54:27.033Z,100421.63
2022-12-24T10:57:00.423Z,100428.63
2022-12-24T10:59:30.821Z,100419.22
2022-12-24T11:02:04.567Z,100423.34
2022-12-24T11:04:35.776Z,100431.69
2022-12-24T11:07:07.256Z,100427.81
2022-12-24T11:09:39.534Z,100441.03
2022-12-24T11:12:21.362Z,100438.03
2022-12-24T11:14:52.184Z,100451.31
2022-12-24T11:17:26.274Z,100448.75
2022-12-24T11:19:55.949Z,100443.13
2022-12-24T11:22:27.196Z,100444.59
2022-12-24T11:25:02.838Z,100450.44
2022-12-24T11:27:36.154Z,100450.50
2022-12-24T11:30:26.565Z,100445.00
2022-12-24T11:33:24.630Z,100447.03
2022-12-24T11:36:00.922Z,100451.13
2022-12-24T11:38:32.367Z,100445.53
2022-12-24T11:41:05.340Z,100440.69
2022-12-24T11:43:49.644Z,100446.84
2022-12-24T11:46:41.624Z,100442.63
2022-12-24T11:49:26.897Z,100449.53
2022-12-24T11:52:19.790Z,100443.69
2022-12-24T11:55:13.743Z,100444.41
2022-12-24T11:57:54.812Z,100441.13
2022-12-24T12:00:24.221Z,100436.13
2022-12-24T12:02:55.023Z,100439.09
2022-12-24T12:05:30.722Z,100440.31
2022-12-24T12:08:09.851Z,100447.53
2022-12-24T12:10:41.707Z,100454.13
2022-12-24T12:13:16.454Z,100459.34
2022-12-24T12:15:51.733Z,100446.84
2022-12-24T12:18:27.380Z,100459.72
2022-12-24T12:21:04.931Z,100461.31
2022-12-24T12:23:39.210Z,100459.63
2022-12-24T12:26:13.690Z,100462.31
2022-12-24T12:28:48.653Z,100467.19
2022-12-24T12:31:25.439Z,100469.88
2022-12-24T12:34:00.427Z,100468.19
2022-12-24T12:36:37.045Z,100477.56
2022-12-24T12:39:07.229Z,100480.84
2022-12-24T12:41:52.086Z,100484.41
2022-12-24T12:44:41.826Z,100487.28
2022-12-24T12:47:33.931Z,100479.34
2022-12-24T12:50:11.347Z,100485.97
2022-12-24T12:53:06.096Z,100482.31
2022-12-24T12:55:46.569Z,100486.25
2022-12-24T12:58:23.845Z,100478.22
2022-12-24T13:00:59.028Z,100478.59
2022-12-24T13:03:59.319Z,100485.97
2022-12-24T13:06:54.098Z,100485.19
2022-12-24T13:09:58.716Z,100482.09
2022-12-24T13:12:56.371Z,100488.22
2022-12-24T13:15:38.183Z,100492.22
2022-12-24T13:18:27.887Z,100489.66
2022-12-24T13:20:57.620Z,100497.84
2022-12-24T13:23:30.388Z,100487.03
2022-12-24T13:26:02.247Z,100490.53
2022-12-24T13:28:37.114Z,100497.19
2022-12-24T13:31:31.646Z,100496.16
2022-12-24T13:34:06.024Z,100506.53
2022-12-24T13:37:05.849Z,100505.03
2022-12-24T13:40:16.383Z,100507.59
2022-12-24T13:43:12.513Z,100573.53
2022-12-24T13:45:48.155Z,100565.25
2022-12-24T13:48:28.583Z,100555.25
2022-12-24T13:51:00.697Z,100548.34
2022-12-24T13:53:34.659Z,100555.81
2022-12-24T13:56:11.357Z,100562.41
2022-12-24T13:58:47.778Z,100551.84
2022-12-24T14:01:21.307Z,100561.06
2022-12-24T14:03:54.050Z,100558.59
2022-12-24T14:06:26.920Z,100575.09
2022-12-24T14:08:59.418Z,100564.28
2022-12-24T14:11:36.299Z,100572.53
2022-12-24T14:14:29.825Z,100568.66
2022-12-24T14:17:01.701Z,100579.44
2022-12-24T14:19:37.608Z,100573.72
2022-12-24T14:22:20.992Z,100580.78
2022-12-24T14:24:57.799Z,100593.41
2022-12-24T14:27:34.795Z,100594.09
2022-12-24T14:30:10.916Z,100590.06
2022-12-24T14:32:42.120Z,100592.84
2022-12-24T14:35:18.683Z,100605.34
2022-12-24T14:37:51.228Z,100600.63
2022-12-24T14:40:24.134Z,100599.13
2022-12-24T14:43:01.582Z,100604.88
2022-12-24T14:45:40.876Z,100619.91
2022-12-24T14:48:19.235Z,100626.47
2022-12-24T14:51:02.657Z,100631.88
2022-12-24T14:53:49.592Z,100634.72
2022-12-24T14:56:22.572Z,100634.69
2022-12-24T14:58:52.611Z,100643.44
2022-12-24T15:01:27.375Z,100643.47
2022-12-24T15:04:03.836Z,100650.88
2022-12-24T15:06:36.506Z,100664.34
2022-12-24T15:09:06.629Z,100660.63
2022-12-24T15:11:36.089Z,100657.63
2022-12-24T15:14:05.643Z,100646.66
2022-12-24T15:16:39.160Z,100661.31
2022-12-24T15:19:11.579Z,100664.53
2022-12-24T15:21:44.042Z,100663.84
2022-12-24T15:24:26.995Z,100669.25
2022-12-24T15:26:56.261Z,100673.78
2022-12-24T15:29:27.325Z,100683.69
2022-12-24T15:32:01.387Z,100682.03
2022-12-24T15:34:32.902Z,100690.25
2022-12-24T15:37:08.643Z,100698.66
2022-12-24T15:39:39.310Z,100693.47
2022-12-24T15:42:18.851Z,100698.19
2022-12-24T15:44:59.041Z,100697.19
2022-12-24T15:47:38.019Z,100710.47
2022-12-24T15:50:17.213Z,100705.44
2022-12-24T15:52:47.470Z,100705.59
2022-12-24T15:55:41.037Z,100706.44
2022-12-24T15:58:19.491Z,100705.25
2022-12-24T16:01:07.790Z,100712.16
2022-12-24T16:03:41.950Z,100721.22
2022-12-24T16:06:13.845Z,100721.22
2022-12-24T16:08:44.765Z,100718.53
2022-12-24T16:11:19.320Z,100722.22
2022-12-24T16:14:04.163Z,100722.75
2022-12-24T16:16:36.757Z,100732.84
2022-12-24T16:19:10.519Z,100725.72
2022-12-24T16:21:42.551Z,100735.63
2022-12-24T16:24:18.847Z,100740.00
2022-12-24T16:26:48.323Z,100742.00
2022-12-24T16:29:19.372Z,100751.47
2022-12-24T16:31:52.485Z,100749.28
2022-12-24T16:34:27.757Z,100757.53
2022-12-24T16:36:58.111Z,100754.53
2022-12-24T16:39:31.796Z,100752.34
2022-12-24T16:42:26.952Z,100760.41
2022-12-24T16:44:56.711Z,100762.09
2022-12-24T16:47:33.636Z,100765.81
2022-12-24T16:50:10.325Z,100766.28
2022-12-24T16:52:39.737Z,100773.00
2022-12-24T16:55:09.759Z,100779.19
2022-12-24T16:57:42.648Z,100781.53
2022-12-24T17:00:19.951Z,100766.53
2022-12-24T17:02:50.386Z,100777.31
2022-12-24T17:05:23.870Z,100775.47
2022-12-24T17:07:53.492Z,100773.41
2022-12-24T17:10:22.937Z,100775.22
2022-12-24T17:12:52.321Z,100778.91
2022-12-24T17:15:21.902Z,100787.22
2022-12-24T17:17:51.250Z,100787.59
2022-12-24T17:20:24.525Z,100791.47
2022-12-24T17:22:54.604Z,100788.28
2022-12-24T17:25:24.030Z,100787.59
2022-12-24T17:27:53.511Z,100793.09
2022-12-24T17:30:23.092Z,100792.44
2022-12-24T17:32:52.561Z,100802.41
2022-12-24T17:35:24.923Z,100795.19
2022-12-24T17:37:54.314Z,100795.38
2022-12-24T17:40:23.745Z,100790.97
2022-12-24T17:42:53.186Z,100797.66
2022-12-24T17:45:23.151Z,100796.09
2022-12-24T17:47:52.488Z,100797.41
2022-12-24T17:50:24.473Z,100789.16
2022-12-24T17:52:53.851Z,100790.00
2022-12-24T17:55:23.813Z,100803.94
2022-12-24T17:57:53.201Z,100802.72
2022-12-24T18:00:24.764Z,100805.81
2022-12-24T18:02:57.493Z,100812.03
2022-12-24T18:05:29.544Z,100808.78
2022-12-24T18:07:58.928Z,100819.63
2022-12-24T18:10:28.330Z,100818.34
2022-12-24T18:12:57.700Z,100822.47
2022-12-24T18:15:27.084Z,100822.41
2022-12-24T18:17:59.344Z,100820.03
2022-12-24T18:20:32.588Z,100825.72
2022-12-24T18:23:02.173Z,100832.81
2022-12-24T18:25:31.654Z,100826.59
2022-12-24T18:28:01.037Z,100834.34
2022-12-24T18:30:30.518Z,100841.09
2022-12-24T18:32:59.931Z,100840.06
2022-12-24T18:35:31.957Z,100834.63
2022-12-24T18:38:01.301Z,100842.53
2022-12-24T18:40:30.734Z,100849.06
2022-12-24T18:43:00.108Z,100846.84
2022-12-24T18:45:29.492Z,100842.09
2022-12-24T18:47:58.869Z,100848.25
2022-12-24T18:50:28.240Z,100854.56
2022-12-24T18:53:00.281Z,100855.03
2022-12-24T18:55:29.851Z,100856.41
2022-12-24T18:57:59.273Z,100856.72
2022-12-24T19:00:28.820Z,100854.28
2022-12-24T19:02:58.320Z,100844.41
2022-12-24T19:05:28.235Z,100846.47
2022-12-24T19:08:10.971Z,100843.22
2022-12-24T19:10:50.342Z,100850.53
2022-12-24T19:13:20.083Z,100855.50
2022-12-24T19:15:50.174Z,100852.34
2022-12-24T19:18:19.682Z,100848.00
2022-12-24T19:20:49.146Z,100849.91
2022-12-24T19:23:21.312Z,100851.22
2022-12-24T19:25:50.728Z,100854.53
2022-12-24T19:28:25.612Z,100854.28
2022-12-24T19:30:55.305Z,100853.06
2022-12-24T19:33:25.091Z,100862.44
2022-12-24T19:35:54.461Z,100870.41
2022-12-24T19:38:26.457Z,100867.53
2022-12-24T19:40:55.849Z,100872.72
2022-12-24T19:43:25.205Z,100872.94
2022-12-24T19:45:59.789Z,100879.38
2022-12-24T19:48:29.205Z,100883.69
2022-12-24T19:51:03.060Z,100886.09
2022-12-24T19:53:35.334Z,100882.75
2022-12-24T19:56:05.202Z,100888.13
2022-12-24T19:58:35.272Z,100883.22
2022-12-24T20:01:14.513Z,100892.38
2022-12-24T20:03:45.024Z,100892.88
2022-12-24T20:06:15.338Z,100895.50
2022-12-24T20:08:47.541Z,100903.59
2022-12-24T20:11:19.579Z,100900.06
2022-12-24T20:13:49.146Z,100912.16
2022-12-24T20:16:21.127Z,100908.25
2022-12-24T20:18:54.139Z,100913.13
2022-12-24T20:21:23.701Z,100907.53
2022-12-24T20:23:56.085Z,100910.13
2022-12-24T20:26:28.024Z,100914.09
2022-12-24T20:28:57.583Z,100921.47
2022-12-24T20:31:29.556Z,100916.09
2022-12-24T20:34:00.536Z,100931.22
2022-12-24T20:36:31.937Z,100931.78
2022-12-24T20:39:04.082Z,100931.78
2022-12-24T20:41:34.138Z,100933.91
2022-12-24T20:44:04.716Z,100937.97
2022-12-24T20:46:35.502Z,100943.81
2022-12-24T20:49:05.291Z,100940.72
2022-12-24T20:51:35.044Z,100936.72
2022-12-24T20:54:07.023Z,100947.63
2022-12-24T20:56:36.383Z,100943.72
2022-12-24T20:59:05.852Z,100943.25
2022-12-24T21:01:35.350Z,100946.31
2022-12-24T21:04:07.396Z,100953.97
2022-12-24T21:06:37.948Z,100942.41
2022-12-24T21:09:09.949Z,100943.94
2022-12-24T21:11:52.357Z,100941.56
2022-12-24T21:14:24.794Z,100938.13
2022-12-24T21:16:55.519Z,100938.13
2022-12-24T21:19:27.259Z,100949.31
2022-12-24T21:21:56.725Z,100946.63
2022-12-24T21:24:28.690Z,100955.38
2022-12-24T21:26:58.093Z,100953.84
2022-12-24T21:29:27.454Z,100954.84
2022-12-24T21:31:56.853Z,100948.66
2022-12-24T21:34:26.259Z,100951.50
2022-12-24T21:36:55.618Z,100951.94
2022-12-24T21:39:24.983Z,100944.91
2022-12-24T21:41:57.042Z,100945.88
2022-12-24T21:44:26.496Z,100946.16
2022-12-24T21:46:55.821Z,100948.84
2022-12-24T21:49:37.797Z,100948.44
2022-12-24T21:52:07.425Z,100945.06
2022-12-24T21:54:34.552Z,100955.94
2022-12-24T21:57:20.577Z,100948.03
2022-12-24T21:59:52.231Z,100948.19
2022-12-24T22:02:23.113Z,100956.53
2022-12-24T22:04:52.622Z,100958.19
2022-12-24T22:07:37.328Z,100962.19
2022-12-24T22:10:20.111Z,100957.94
2022-12-24T22:12:52.063Z,100961.75
2022-12-24T22:15:21.764Z,100967.97
2022-12-24T22:17:51.108Z,100968.81
2022-12-24T22:20:20.611Z,100970.81
2022-12-24T22:22:50.474Z,100963.59
2022-12-24T22:25:21.296Z,100966.16
2022-12-24T22:27:53.232Z,100965.47
2022-12-24T22:30:22.609Z,100968.56
2022-12-24T22:32:52.238Z,100977.44
2022-12-24T22:35:21.699Z,100971.25
2022-12-24T22:37:55.916Z,100970.66
2022-12-24T22:40:28.941Z,100939.91
2022-12-24T22:43:00.905Z,100967.44
2022-12-24T22:45:30.366Z,100969.41
2022-12-24T22:47:59.799Z,100964.06
2022-12-24T22:50:29.221Z,100962.94
2022-12-24T22:52:58.589Z,100959.13
2022-12-24T22:55:27.938Z,100968.75
2022-12-24T22:57:57.264Z,100960.25
2022-12-24T23:00:44.198Z,100958.72
2022-12-24T23:03:14.856Z,100960.72
2022-12-24T23:05:44.427Z,100968.75
2022-12-24T23:08:15.382Z,100968.59
2022-12-24T23:10:44.867Z,100961.56
2022-12-24T23:13:28.460Z,100964.53
2022-12-24T23:16:04.290Z,100958.44
2022-12-24T23:18:33.992Z,100952.97
2022-12-24T23:21:08.092Z,100962.13
2022-12-24T23:23:37.741Z,100958.16
2022-12-24T23:26:08.050Z,100968.47
2022-12-24T23:28:37.757Z,100975.38
2022-12-24T23:31:10.031Z,100972.13
2022-12-24T23:33:40.076Z,100967.59
2022-12-24T23:36:10.401Z,100961.84
2022-12-24T23:38:39.842Z,100946.84
2022-12-24T23:41:11.253Z,100952.69
2022-12-24T23:43:40.693Z,100951.13
2022-12-24T23:46:15.696Z,100959.56
2022-12-24T23:48:45.889Z,100951.53
2022-12-24T23:51:18.010Z,100954.78
2022-12-24T23:53:47.500Z,100957.34
2022-12-24T23:56:18.122Z,100956.78
2022-12-24T23:58:48.224Z,100963.81
